sensor_id;sensor_type;location;lat;lon;timestamp;P1;durP1;ratioP1;P2;durP2;ratioP2
16099;SDS011;8154;50.830;12.082;2022-12-17T00:01:18;6.85;;;6.25;;
16099;SDS011;8154;50.830;12.082;2022-12-17T00:04:23;6.45;;;5.85;;
16099;SDS011;8154;50.830;12.082;2022-12-17T00:07:38;6.53;;;5.97;;
16099;SDS011;8154;50.830;12.082;2022-12-17T00:10:41;6.60;;;6.00;;
16099;SDS011;8154;50.830;12.082;2022-12-17T00:13:43;6.70;;;6.10;;
16099;SDS011;8154;50.830;12.082;2022-12-17T00:16:52;6.85;;;6.25;;
16099;SDS011;8154;50.830;12.082;2022-12-17T00:19:55;6.57;;;6.07;;
16099;SDS011;8154;50.830;12.082;2022-12-17T00:22:59;6.20;;;5.70;;
16099;SDS011;8154;50.830;12.082;2022-12-17T00:26:03;6.70;;;6.10;;
16099;SDS011;8154;50.830;12.082;2022-12-17T00:29:07;6.45;;;5.85;;
16099;SDS011;8154;50.830;12.082;2022-12-17T00:32:11;7.00;;;6.40;;
16099;SDS011;8154;50.830;12.082;2022-12-17T00:35:15;6.80;;;6.20;;
16099;SDS011;8154;50.830;12.082;2022-12-17T00:38:18;6.85;;;6.25;;
16099;SDS011;8154;50.830;12.082;2022-12-17T00:41:21;6.30;;;5.80;;
16099;SDS011;8154;50.830;12.082;2022-12-17T00:44:24;6.55;;;5.95;;
16099;SDS011;8154;50.830;12.082;2022-12-17T00:47:27;6.70;;;6.10;;
16099;SDS011;8154;50.830;12.082;2022-12-17T00:50:30;6.78;;;6.20;;
16099;SDS011;8154;50.830;12.082;2022-12-17T00:53:33;6.57;;;6.05;;
16099;SDS011;8154;50.830;12.082;2022-12-17T00:56:36;6.78;;;6.18;;
16099;SDS011;8154;50.830;12.082;2022-12-17T00:59:40;6.63;;;6.10;;
16099;SDS011;8154;50.830;12.082;2022-12-17T01:02:43;6.75;;;6.15;;
16099;SDS011;8154;50.830;12.082;2022-12-17T01:05:46;6.28;;;5.78;;
16099;SDS011;8154;50.830;12.082;2022-12-17T01:08:53;6.60;;;6.05;;
16099;SDS011;8154;50.830;12.082;2022-12-17T01:11:56;6.90;;;6.30;;
16099;SDS011;8154;50.830;12.082;2022-12-17T01:14:59;6.35;;;5.75;;
16099;SDS011;8154;50.830;12.082;2022-12-17T01:18:02;6.65;;;6.05;;
16099;SDS011;8154;50.830;12.082;2022-12-17T01:21:05;6.90;;;6.30;;
16099;SDS011;8154;50.830;12.082;2022-12-17T01:24:08;6.97;;;6.38;;
16099;SDS011;8154;50.830;12.082;2022-12-17T01:27:11;6.82;;;6.22;;
16099;SDS011;8154;50.830;12.082;2022-12-17T01:30:15;6.38;;;5.78;;
16099;SDS011;8154;50.830;12.082;2022-12-17T01:33:20;6.55;;;6.00;;
16099;SDS011;8154;50.830;12.082;2022-12-17T01:36:28;6.75;;;6.18;;
16099;SDS011;8154;50.830;12.082;2022-12-17T01:39:31;6.47;;;5.88;;
16099;SDS011;8154;50.830;12.082;2022-12-17T01:42:41;6.43;;;5.93;;
16099;SDS011;8154;50.830;12.082;2022-12-17T01:45:50;6.72;;;6.13;;
16099;SDS011;8154;50.830;12.082;2022-12-17T01:48:54;6.72;;;6.13;;
16099;SDS011;8154;50.830;12.082;2022-12-17T01:51:57;6.80;;;6.20;;
16099;SDS011;8154;50.830;12.082;2022-12-17T01:55:04;6.63;;;6.13;;
16099;SDS011;8154;50.830;12.082;2022-12-17T01:58:11;6.93;;;6.32;;
16099;SDS011;8154;50.830;12.082;2022-12-17T02:01:15;6.88;;;6.20;;
16099;SDS011;8154;50.830;12.082;2022-12-17T02:04:21;6.45;;;5.90;;
16099;SDS011;8154;50.830;12.082;2022-12-17T02:07:46;6.70;;;6.10;;
16099;SDS011;8154;50.830;12.082;2022-12-17T02:22:03;6.20;;;5.70;;
16099;SDS011;8154;50.830;12.082;2022-12-17T02:25:36;6.72;;;6.13;;
16099;SDS011;8154;50.830;12.082;2022-12-17T02:28:48;6.80;;;6.20;;
16099;SDS011;8154;50.830;12.082;2022-12-17T02:31:55;6.50;;;5.90;;
16099;SDS011;8154;50.830;12.082;2022-12-17T02:35:06;6.38;;;5.88;;
16099;SDS011;8154;50.830;12.082;2022-12-17T02:38:20;6.57;;;5.97;;
16099;SDS011;8154;50.830;12.082;2022-12-17T02:41:26;6.63;;;6.03;;
16099;SDS011;8154;50.830;12.082;2022-12-17T02:44:32;6.70;;;6.10;;
16099;SDS011;8154;50.830;12.082;2022-12-17T02:47:37;6.60;;;6.05;;
16099;SDS011;8154;50.830;12.082;2022-12-17T02:50:42;6.68;;;6.07;;
16099;SDS011;8154;50.830;12.082;2022-12-17T02:53:53;6.57;;;5.97;;
16099;SDS011;8154;50.830;12.082;2022-12-17T02:56:56;5.97;;;5.47;;
16099;SDS011;8154;50.830;12.082;2022-12-17T02:59:59;6.90;;;6.30;;
16099;SDS011;8154;50.830;12.082;2022-12-17T03:03:02;6.63;;;6.03;;
16099;SDS011;8154;50.830;12.082;2022-12-17T03:06:06;6.32;;;5.72;;
16099;SDS011;8154;50.830;12.082;2022-12-17T03:09:09;6.70;;;6.10;;
16099;SDS011;8154;50.830;12.082;2022-12-17T03:12:23;6.13;;;5.63;;
16099;SDS011;8154;50.830;12.082;2022-12-17T03:15:33;6.20;;;5.70;;
16099;SDS011;8154;50.830;12.082;2022-12-17T03:18:38;6.50;;;6.00;;
16099;SDS011;8154;50.830;12.082;2022-12-17T03:21:54;6.15;;;5.65;;
16099;SDS011;8154;50.830;12.082;2022-12-17T03:24:58;6.70;;;6.10;;
16099;SDS011;8154;50.830;12.082;2022-12-17T03:28:04;6.25;;;5.75;;
16099;SDS011;8154;50.830;12.082;2022-12-17T03:34:35;6.88;;;6.28;;
16099;SDS011;8154;50.830;12.082;2022-12-17T03:37:40;6.20;;;5.70;;
16099;SDS011;8154;50.830;12.082;2022-12-17T03:40:49;6.75;;;6.15;;
16099;SDS011;8154;50.830;12.082;2022-12-17T03:43:53;6.28;;;5.78;;
16099;SDS011;8154;50.830;12.082;2022-12-17T03:47:05;6.65;;;6.05;;
16099;SDS011;8154;50.830;12.082;2022-12-17T03:50:15;6.57;;;5.97;;
16099;SDS011;8154;50.830;12.082;2022-12-17T03:53:23;6.40;;;5.80;;
16099;SDS011;8154;50.830;12.082;2022-12-17T03:56:27;6.70;;;6.10;;
16099;SDS011;8154;50.830;12.082;2022-12-17T03:59:31;6.30;;;5.70;;
16099;SDS011;8154;50.830;12.082;2022-12-17T04:02:37;5.95;;;5.43;;
16099;SDS011;8154;50.830;12.082;2022-12-17T04:05:41;6.70;;;6.10;;
16099;SDS011;8154;50.830;12.082;2022-12-17T04:08:48;6.47;;;5.88;;
16099;SDS011;8154;50.830;12.082;2022-12-17T04:11:52;6.00;;;5.50;;
16099;SDS011;8154;50.830;12.082;2022-12-17T04:15:02;6.20;;;5.70;;
16099;SDS011;8154;50.830;12.082;2022-12-17T04:18:06;6.40;;;5.90;;
16099;SDS011;8154;50.830;12.082;2022-12-17T04:21:11;6.65;;;6.05;;
16099;SDS011;8154;50.830;12.082;2022-12-17T04:24:14;6.30;;;5.70;;
16099;SDS011;8154;50.830;12.082;2022-12-17T04:27:18;6.63;;;6.03;;
16099;SDS011;8154;50.830;12.082;2022-12-17T04:30:22;6.13;;;5.63;;
16099;SDS011;8154;50.830;12.082;2022-12-17T04:33:26;6.25;;;5.65;;
16099;SDS011;8154;50.830;12.082;2022-12-17T04:36:29;5.82;;;5.32;;
16099;SDS011;8154;50.830;12.082;2022-12-17T04:39:36;6.10;;;5.60;;
16099;SDS011;8154;50.830;12.082;2022-12-17T04:42:43;5.82;;;5.32;;
16099;SDS011;8154;50.830;12.082;2022-12-17T04:45:49;6.18;;;5.65;;
16099;SDS011;8154;50.830;12.082;2022-12-17T04:48:58;6.68;;;6.07;;
16099;SDS011;8154;50.830;12.082;2022-12-17T04:52:07;6.00;;;5.50;;
16099;SDS011;8154;50.830;12.082;2022-12-17T04:55:10;6.00;;;5.45;;
16099;SDS011;8154;50.830;12.082;2022-12-17T04:58:16;5.90;;;5.40;;
16099;SDS011;8154;50.830;12.082;2022-12-17T05:01:21;5.93;;;5.43;;
16099;SDS011;8154;50.830;12.082;2022-12-17T05:04:25;5.90;;;5.40;;
16099;SDS011;8154;50.830;12.082;2022-12-17T05:07:30;6.03;;;5.53;;
16099;SDS011;8154;50.830;12.082;2022-12-17T05:10:33;5.88;;;5.38;;
16099;SDS011;8154;50.830;12.082;2022-12-17T05:13:37;5.40;;;5.00;;
16099;SDS011;8154;50.830;12.082;2022-12-17T05:16:51;5.82;;;5.32;;
16099;SDS011;8154;50.830;12.082;2022-12-17T05:20:00;5.75;;;5.25;;
16099;SDS011;8154;50.830;12.082;2022-12-17T05:23:05;5.95;;;5.45;;
16099;SDS011;8154;50.830;12.082;2022-12-17T05:26:18;5.70;;;5.20;;
16099;SDS011;8154;50.830;12.082;2022-12-17T05:29:40;5.50;;;5.00;;
16099;SDS011;8154;50.830;12.082;2022-12-17T05:32:56;5.40;;;4.90;;
16099;SDS011;8154;50.830;12.082;2022-12-17T05:36:00;5.60;;;5.10;;
16099;SDS011;8154;50.830;12.082;2022-12-17T05:39:12;5.25;;;4.85;;
16099;SDS011;8154;50.830;12.082;2022-12-17T05:42:16;5.50;;;5.00;;
16099;SDS011;8154;50.830;12.082;2022-12-17T05:45:19;5.50;;;5.00;;
16099;SDS011;8154;50.830;12.082;2022-12-17T05:48:23;5.68;;;5.18;;
16099;SDS011;8154;50.830;12.082;2022-12-17T05:51:27;5.45;;;4.95;;
16099;SDS011;8154;50.830;12.082;2022-12-17T05:54:33;5.63;;;5.13;;
16099;SDS011;8154;50.830;12.082;2022-12-17T05:57:37;5.13;;;4.72;;
16099;SDS011;8154;50.830;12.082;2022-12-17T06:00:53;5.25;;;4.85;;
16099;SDS011;8154;50.830;12.082;2022-12-17T06:03:59;5.50;;;5.00;;
16099;SDS011;8154;50.830;12.082;2022-12-17T06:07:09;5.32;;;4.82;;
16099;SDS011;8154;50.830;12.082;2022-12-17T06:10:20;5.05;;;4.65;;
16099;SDS011;8154;50.830;12.082;2022-12-17T06:13:24;5.00;;;4.60;;
16099;SDS011;8154;50.830;12.082;2022-12-17T06:16:39;5.05;;;4.65;;
16099;SDS011;8154;50.830;12.082;2022-12-17T06:19:44;4.80;;;4.40;;
16099;SDS011;8154;50.830;12.082;2022-12-17T06:22:59;4.82;;;4.43;;
16099;SDS011;8154;50.830;12.082;2022-12-17T06:26:18;5.50;;;5.00;;
16099;SDS011;8154;50.830;12.082;2022-12-17T06:29:31;4.85;;;4.43;;
16099;SDS011;8154;50.830;12.082;2022-12-17T06:32:38;4.68;;;4.28;;
16099;SDS011;8154;50.830;12.082;2022-12-17T06:35:44;5.05;;;4.65;;
16099;SDS011;8154;50.830;12.082;2022-12-17T06:39:34;4.80;;;4.40;;
16099;SDS011;8154;50.830;12.082;2022-12-17T06:42:18;4.85;;;4.45;;
16099;SDS011;8154;50.830;12.082;2022-12-17T06:45:24;4.97;;;4.57;;
16099;SDS011;8154;50.830;12.082;2022-12-17T06:48:31;4.72;;;4.32;;
16099;SDS011;8154;50.830;12.082;2022-12-17T06:51:36;4.68;;;4.28;;
16099;SDS011;8154;50.830;12.082;2022-12-17T06:54:42;4.97;;;4.57;;
16099;SDS011;8154;50.830;12.082;2022-12-17T06:57:46;4.90;;;4.50;;
16099;SDS011;8154;50.830;12.082;2022-12-17T07:00:55;5.20;;;4.70;;
16099;SDS011;8154;50.830;12.082;2022-12-17T07:04:04;4.60;;;4.20;;
16099;SDS011;8154;50.830;12.082;2022-12-17T07:07:10;4.50;;;4.10;;
16099;SDS011;8154;50.830;12.082;2022-12-17T07:10:13;4.60;;;4.20;;
16099;SDS011;8154;50.830;12.082;2022-12-17T07:13:16;4.50;;;4.10;;
16099;SDS011;8154;50.830;12.082;2022-12-17T07:16:20;4.80;;;4.40;;
16099;SDS011;8154;50.830;12.082;2022-12-17T07:19:23;4.57;;;4.18;;
16099;SDS011;8154;50.830;12.082;2022-12-17T07:22:27;4.63;;;4.22;;
16099;SDS011;8154;50.830;12.082;2022-12-17T07:25:30;4.88;;;4.47;;
16099;SDS011;8154;50.830;12.082;2022-12-17T07:28:33;4.65;;;4.25;;
16099;SDS011;8154;50.830;12.082;2022-12-17T07:31:36;4.78;;;4.38;;
16099;SDS011;8154;50.830;12.082;2022-12-17T07:34:39;4.28;;;3.88;;
16099;SDS011;8154;50.830;12.082;2022-12-17T07:37:46;4.55;;;4.15;;
16099;SDS011;8154;50.830;12.082;2022-12-17T07:40:51;4.45;;;4.05;;
16099;SDS011;8154;50.830;12.082;2022-12-17T07:43:57;4.47;;;4.07;;
16099;SDS011;8154;50.830;12.082;2022-12-17T07:47:01;4.32;;;3.92;;
16099;SDS011;8154;50.830;12.082;2022-12-17T07:50:05;4.25;;;3.85;;
16099;SDS011;8154;50.830;12.082;2022-12-17T07:53:15;4.30;;;4.00;;
16099;SDS011;8154;50.830;12.082;2022-12-17T07:56:19;4.13;;;3.83;;
16099;SDS011;8154;50.830;12.082;2022-12-17T07:59:23;4.40;;;4.00;;
16099;SDS011;8154;50.830;12.082;2022-12-17T08:02:32;4.55;;;4.15;;
16099;SDS011;8154;50.830;12.082;2022-12-17T08:05:49;4.20;;;3.90;;
16099;SDS011;8154;50.830;12.082;2022-12-17T08:08:53;4.40;;;4.07;;
16099;SDS011;8154;50.830;12.082;2022-12-17T08:11:58;4.30;;;3.90;;
16099;SDS011;8154;50.830;12.082;2022-12-17T08:15:04;4.10;;;3.80;;
16099;SDS011;8154;50.830;12.082;2022-12-17T08:18:13;4.13;;;3.83;;
16099;SDS011;8154;50.830;12.082;2022-12-17T08:21:17;4.07;;;3.78;;
16099;SDS011;8154;50.830;12.082;2022-12-17T08:24:21;3.88;;;3.58;;
16099;SDS011;8154;50.830;12.082;2022-12-17T08:27:26;3.75;;;3.45;;
16099;SDS011;8154;50.830;12.082;2022-12-17T08:30:48;4.32;;;3.92;;
16099;SDS011;8154;50.830;12.082;2022-12-17T08:33:52;4.03;;;3.63;;
16099;SDS011;8154;50.830;12.082;2022-12-17T08:37:06;3.90;;;3.60;;
16099;SDS011;8154;50.830;12.082;2022-12-17T08:43:59;4.05;;;3.70;;
16099;SDS011;8154;50.830;12.082;2022-12-17T08:47:12;3.50;;;3.20;;
16099;SDS011;8154;50.830;12.082;2022-12-17T08:50:16;4.10;;;3.70;;
16099;SDS011;8154;50.830;12.082;2022-12-17T08:53:59;3.92;;;3.63;;
16099;SDS011;8154;50.830;12.082;2022-12-17T08:57:04;3.72;;;3.42;;
16099;SDS011;8154;50.830;12.082;2022-12-17T09:07:31;3.60;;;3.30;;
16099;SDS011;8154;50.830;12.082;2022-12-17T09:10:37;3.53;;;3.22;;
16099;SDS011;8154;50.830;12.082;2022-12-17T09:14:03;3.70;;;3.40;;
16099;SDS011;8154;50.830;12.082;2022-12-17T09:17:09;4.00;;;3.70;;
16099;SDS011;8154;50.830;12.082;2022-12-17T09:20:14;3.50;;;3.20;;
16099;SDS011;8154;50.830;12.082;2022-12-17T09:23:21;3.60;;;3.30;;
16099;SDS011;8154;50.830;12.082;2022-12-17T09:26:41;3.60;;;3.30;;
16099;SDS011;8154;50.830;12.082;2022-12-17T09:30:06;3.53;;;3.22;;
16099;SDS011;8154;50.830;12.082;2022-12-17T09:33:13;3.95;;;3.65;;
16099;SDS011;8154;50.830;12.082;2022-12-17T09:36:21;3.63;;;3.33;;
16099;SDS011;8154;50.830;12.082;2022-12-17T09:39:26;3.70;;;3.40;;
16099;SDS011;8154;50.830;12.082;2022-12-17T09:49:23;3.33;;;3.03;;
16099;SDS011;8154;50.830;12.082;2022-12-17T09:52:37;3.20;;;3.00;;
16099;SDS011;8154;50.830;12.082;2022-12-17T09:55:47;3.50;;;3.20;;
16099;SDS011;8154;50.830;12.082;2022-12-17T09:59:25;3.58;;;3.28;;
16099;SDS011;8154;50.830;12.082;2022-12-17T10:02:50;3.60;;;3.30;;
16099;SDS011;8154;50.830;12.082;2022-12-17T10:09:34;3.50;;;3.20;;
16099;SDS011;8154;50.830;12.082;2022-12-17T10:12:46;3.65;;;3.35;;
16099;SDS011;8154;50.830;12.082;2022-12-17T10:15:57;3.22;;;3.00;;
16099;SDS011;8154;50.830;12.082;2022-12-17T10:19:32;3.40;;;3.10;;
16099;SDS011;8154;50.830;12.082;2022-12-17T10:22:42;3.30;;;3.10;;
16099;SDS011;8154;50.830;12.082;2022-12-17T10:25:54;3.30;;;3.05;;
16099;SDS011;8154;50.830;12.082;2022-12-17T10:29:09;3.10;;;2.90;;
16099;SDS011;8154;50.830;12.082;2022-12-17T10:35:40;3.60;;;3.30;;
16099;SDS011;8154;50.830;12.082;2022-12-17T10:38:43;2.95;;;2.75;;
16099;SDS011;8154;50.830;12.082;2022-12-17T10:42:23;2.97;;;2.78;;
16099;SDS011;8154;50.830;12.082;2022-12-17T10:48:45;3.10;;;2.90;;
16099;SDS011;8154;50.830;12.082;2022-12-17T10:51:48;2.90;;;2.70;;
16099;SDS011;8154;50.830;12.082;2022-12-17T10:55:35;3.17;;;2.88;;
16099;SDS011;8154;50.830;12.082;2022-12-17T10:58:48;3.30;;;3.00;;
16099;SDS011;8154;50.830;12.082;2022-12-17T11:01:58;3.45;;;3.15;;
16099;SDS011;8154;50.830;12.082;2022-12-17T11:05:02;3.05;;;2.85;;
16099;SDS011;8154;50.830;12.082;2022-12-17T11:08:10;3.08;;;2.88;;
16099;SDS011;8154;50.830;12.082;2022-12-17T11:11:30;2.92;;;2.72;;
16099;SDS011;8154;50.830;12.082;2022-12-17T11:14:43;2.90;;;2.70;;
16099;SDS011;8154;50.830;12.082;2022-12-17T11:17:53;3.25;;;2.95;;
16099;SDS011;8154;50.830;12.082;2022-12-17T11:21:16;2.92;;;2.72;;
16099;SDS011;8154;50.830;12.082;2022-12-17T11:28:16;3.10;;;2.90;;
16099;SDS011;8154;50.830;12.082;2022-12-17T11:31:45;2.90;;;2.70;;
16099;SDS011;8154;50.830;12.082;2022-12-17T11:42:23;3.08;;;2.88;;
16099;SDS011;8154;50.830;12.082;2022-12-17T11:45:59;3.03;;;2.83;;
16099;SDS011;8154;50.830;12.082;2022-12-17T11:49:29;2.78;;;2.58;;
16099;SDS011;8154;50.830;12.082;2022-12-17T11:56:15;2.90;;;2.70;;
16099;SDS011;8154;50.830;12.082;2022-12-17T11:59:29;2.80;;;2.60;;
16099;SDS011;8154;50.830;12.082;2022-12-17T12:02:44;2.80;;;2.60;;
16099;SDS011;8154;50.830;12.082;2022-12-17T12:13:26;2.72;;;2.53;;
16099;SDS011;8154;50.830;12.082;2022-12-17T12:23:30;2.92;;;2.72;;
16099;SDS011;8154;50.830;12.082;2022-12-17T12:27:00;2.72;;;2.53;;
16099;SDS011;8154;50.830;12.082;2022-12-17T12:34:22;2.78;;;2.58;;
16099;SDS011;8154;50.830;12.082;2022-12-17T12:37:29;2.78;;;2.58;;
16099;SDS011;8154;50.830;12.082;2022-12-17T12:40:42;2.42;;;2.25;;
16099;SDS011;8154;50.830;12.082;2022-12-17T12:44:08;2.67;;;2.47;;
16099;SDS011;8154;50.830;12.082;2022-12-17T12:50:56;2.70;;;2.50;;
16099;SDS011;8154;50.830;12.082;2022-12-17T12:54:25;2.60;;;2.40;;
16099;SDS011;8154;50.830;12.082;2022-12-17T12:57:30;2.65;;;2.45;;
16099;SDS011;8154;50.830;12.082;2022-12-17T13:00:54;2.70;;;2.50;;
16099;SDS011;8154;50.830;12.082;2022-12-17T13:03:59;2.70;;;2.50;;
16099;SDS011;8154;50.830;12.082;2022-12-17T13:07:34;2.70;;;2.50;;
16099;SDS011;8154;50.830;12.082;2022-12-17T13:10:29;2.70;;;2.50;;
16099;SDS011;8154;50.830;12.082;2022-12-17T13:13:36;2.80;;;2.60;;
16099;SDS011;8154;50.830;12.082;2022-12-17T13:20:26;2.65;;;2.45;;
16099;SDS011;8154;50.830;12.082;2022-12-17T13:23:39;2.80;;;2.60;;
16099;SDS011;8154;50.830;12.082;2022-12-17T13:45:36;2.65;;;2.45;;
16099;SDS011;8154;50.830;12.082;2022-12-17T13:48:26;2.63;;;2.42;;
16099;SDS011;8154;50.830;12.082;2022-12-17T13:51:17;2.60;;;2.40;;
16099;SDS011;8154;50.830;12.082;2022-12-17T13:54:11;2.50;;;2.30;;
16099;SDS011;8154;50.830;12.082;2022-12-17T13:57:30;2.42;;;2.22;;
16099;SDS011;8154;50.830;12.082;2022-12-17T14:00:27;2.47;;;2.28;;
16099;SDS011;8154;50.830;12.082;2022-12-17T14:03:24;2.50;;;2.30;;
16099;SDS011;8154;50.830;12.082;2022-12-17T14:07:09;2.50;;;2.30;;
16099;SDS011;8154;50.830;12.082;2022-12-17T14:10:11;2.42;;;2.22;;
16099;SDS011;8154;50.830;12.082;2022-12-17T14:13:12;2.53;;;2.33;;
16099;SDS011;8154;50.830;12.082;2022-12-17T14:16:06;2.70;;;2.50;;
16099;SDS011;8154;50.830;12.082;2022-12-17T14:18:56;2.17;;;2.03;;
16099;SDS011;8154;50.830;12.082;2022-12-17T14:21:42;2.55;;;2.35;;
16099;SDS011;8154;50.830;12.082;2022-12-17T14:24:27;2.50;;;2.30;;
16099;SDS011;8154;50.830;12.082;2022-12-17T14:27:17;2.40;;;2.20;;
16099;SDS011;8154;50.830;12.082;2022-12-17T14:30:22;2.58;;;2.38;;
16099;SDS011;8154;50.830;12.082;2022-12-17T14:33:33;2.50;;;2.30;;
16099;SDS011;8154;50.830;12.082;2022-12-17T14:36:20;2.53;;;2.33;;
16099;SDS011;8154;50.830;12.082;2022-12-17T14:39:18;2.50;;;2.30;;
16099;SDS011;8154;50.830;12.082;2022-12-17T14:42:11;2.50;;;2.30;;
16099;SDS011;8154;50.830;12.082;2022-12-17T14:48:12;2.42;;;2.22;;
16099;SDS011;8154;50.830;12.082;2022-12-17T14:51:03;2.47;;;2.28;;
16099;SDS011;8154;50.830;12.082;2022-12-17T14:56:59;2.70;;;2.50;;
16099;SDS011;8154;50.830;12.082;2022-12-17T14:59:49;2.40;;;2.20;;
16099;SDS011;8154;50.830;12.082;2022-12-17T15:02:41;2.25;;;2.15;;
16099;SDS011;8154;50.830;12.082;2022-12-17T15:05:43;2.30;;;2.20;;
16099;SDS011;8154;50.830;12.082;2022-12-17T15:08:41;2.63;;;2.42;;
16099;SDS011;8154;50.830;12.082;2022-12-17T15:11:34;2.38;;;2.22;;
16099;SDS011;8154;50.830;12.082;2022-12-17T15:14:23;2.55;;;2.35;;
16099;SDS011;8154;50.830;12.082;2022-12-17T15:17:08;2.45;;;2.25;;
16099;SDS011;8154;50.830;12.082;2022-12-17T15:20:00;2.50;;;2.30;;
16099;SDS011;8154;50.830;12.082;2022-12-17T15:22:52;2.38;;;2.20;;
16099;SDS011;8154;50.830;12.082;2022-12-17T15:29:18;2.13;;;2.00;;
16099;SDS011;8154;50.830;12.082;2022-12-17T15:32:04;2.42;;;2.22;;
16099;SDS011;8154;50.830;12.082;2022-12-17T15:34:52;2.47;;;2.28;;
16099;SDS011;8154;50.830;12.082;2022-12-17T15:37:53;2.47;;;2.28;;
16099;SDS011;8154;50.830;12.082;2022-12-17T15:40:38;2.50;;;2.30;;
16099;SDS011;8154;50.830;12.082;2022-12-17T15:43:24;2.58;;;2.38;;
16099;SDS011;8154;50.830;12.082;2022-12-17T15:46:12;2.45;;;2.25;;
16099;SDS011;8154;50.830;12.082;2022-12-17T15:49:02;2.40;;;2.20;;
16099;SDS011;8154;50.830;12.082;2022-12-17T15:51:49;2.60;;;2.40;;
16099;SDS011;8154;50.830;12.082;2022-12-17T15:55:02;2.45;;;2.25;;
16099;SDS011;8154;50.830;12.082;2022-12-17T15:57:49;2.63;;;2.42;;
16099;SDS011;8154;50.830;12.082;2022-12-17T16:00:35;2.50;;;2.30;;
16099;SDS011;8154;50.830;12.082;2022-12-17T16:03:35;2.30;;;2.10;;
16099;SDS011;8154;50.830;12.082;2022-12-17T16:06:23;2.45;;;2.25;;
16099;SDS011;8154;50.830;12.082;2022-12-17T16:09:23;2.45;;;2.25;;
16099;SDS011;8154;50.830;12.082;2022-12-17T16:12:27;2.30;;;2.17;;
16099;SDS011;8154;50.830;12.082;2022-12-17T16:15:13;2.60;;;2.40;;
16099;SDS011;8154;50.830;12.082;2022-12-17T16:17:58;2.40;;;2.20;;
16099;SDS011;8154;50.830;12.082;2022-12-17T16:20:42;2.25;;;2.15;;
16099;SDS011;8154;50.830;12.082;2022-12-17T16:23:53;2.40;;;2.20;;
16099;SDS011;8154;50.830;12.082;2022-12-17T16:26:39;2.22;;;2.10;;
16099;SDS011;8154;50.830;12.082;2022-12-17T16:29:24;2.55;;;2.35;;
16099;SDS011;8154;50.830;12.082;2022-12-17T16:32:09;2.20;;;2.10;;
16099;SDS011;8154;50.830;12.082;2022-12-17T16:34:58;2.75;;;2.55;;
16099;SDS011;8154;50.830;12.082;2022-12-17T16:38:01;2.70;;;2.50;;
16099;SDS011;8154;50.830;12.082;2022-12-17T16:41:00;2.60;;;2.40;;
16099;SDS011;8154;50.830;12.082;2022-12-17T16:43:59;2.78;;;2.58;;
16099;SDS011;8154;50.830;12.082;2022-12-17T16:46:45;2.60;;;2.40;;
16099;SDS011;8154;50.830;12.082;2022-12-17T16:49:31;2.70;;;2.50;;
16099;SDS011;8154;50.830;12.082;2022-12-17T16:52:26;2.65;;;2.45;;
16099;SDS011;8154;50.830;12.082;2022-12-17T16:55:19;2.50;;;2.30;;
16099;SDS011;8154;50.830;12.082;2022-12-17T16:58:06;2.50;;;2.30;;
16099;SDS011;8154;50.830;12.082;2022-12-17T17:00:56;2.55;;;2.35;;
16099;SDS011;8154;50.830;12.082;2022-12-17T17:03:42;2.60;;;2.40;;
16099;SDS011;8154;50.830;12.082;2022-12-17T17:06:36;2.67;;;2.47;;
16099;SDS011;8154;50.830;12.082;2022-12-17T17:09:28;2.50;;;2.30;;
16099;SDS011;8154;50.830;12.082;2022-12-17T17:12:25;2.50;;;2.30;;
16099;SDS011;8154;50.830;12.082;2022-12-17T17:15:14;2.40;;;2.20;;
16099;SDS011;8154;50.830;12.082;2022-12-17T17:17:59;2.60;;;2.40;;
16099;SDS011;8154;50.830;12.082;2022-12-17T17:20:50;2.70;;;2.50;;
16099;SDS011;8154;50.830;12.082;2022-12-17T17:23:35;2.60;;;2.40;;
16099;SDS011;8154;50.830;12.082;2022-12-17T17:26:29;2.70;;;2.50;;
16099;SDS011;8154;50.830;12.082;2022-12-17T17:29:18;2.80;;;2.60;;
16099;SDS011;8154;50.830;12.082;2022-12-17T17:32:03;2.65;;;2.45;;
16099;SDS011;8154;50.830;12.082;2022-12-17T17:34:54;2.80;;;2.60;;
16099;SDS011;8154;50.830;12.082;2022-12-17T17:37:39;2.58;;;2.38;;
16099;SDS011;8154;50.830;12.082;2022-12-17T17:40:27;2.65;;;2.45;;
16099;SDS011;8154;50.830;12.082;2022-12-17T17:43:17;2.75;;;2.55;;
16099;SDS011;8154;50.830;12.082;2022-12-17T17:46:04;2.63;;;2.42;;
16099;SDS011;8154;50.830;12.082;2022-12-17T17:48:51;2.80;;;2.60;;
16099;SDS011;8154;50.830;12.082;2022-12-17T17:51:50;2.90;;;2.70;;
16099;SDS011;8154;50.830;12.082;2022-12-17T17:54:42;2.67;;;2.47;;
16099;SDS011;8154;50.830;12.082;2022-12-17T17:57:29;2.90;;;2.70;;
16099;SDS011;8154;50.830;12.082;2022-12-17T18:00:15;2.55;;;2.35;;
16099;SDS011;8154;50.830;12.082;2022-12-17T18:03:01;2.60;;;2.40;;
16099;SDS011;8154;50.830;12.082;2022-12-17T18:05:45;2.97;;;2.50;;
16099;SDS011;8154;50.830;12.082;2022-12-17T18:08:30;2.55;;;2.35;;
16099;SDS011;8154;50.830;12.082;2022-12-17T18:11:19;2.70;;;2.50;;
16099;SDS011;8154;50.830;12.082;2022-12-17T18:14:05;2.85;;;2.65;;
16099;SDS011;8154;50.830;12.082;2022-12-17T18:17:29;3.08;;;2.88;;
16099;SDS011;8154;50.830;12.082;2022-12-17T18:20:15;2.53;;;2.38;;
16099;SDS011;8154;50.830;12.082;2022-12-17T18:23:06;2.80;;;2.60;;
16099;SDS011;8154;50.830;12.082;2022-12-17T18:25:52;2.83;;;2.63;;
16099;SDS011;8154;50.830;12.082;2022-12-17T18:28:37;2.70;;;2.50;;
16099;SDS011;8154;50.830;12.082;2022-12-17T18:31:37;3.03;;;2.72;;
16099;SDS011;8154;50.830;12.082;2022-12-17T18:34:23;2.80;;;2.60;;
16099;SDS011;8154;50.830;12.082;2022-12-17T18:37:10;3.08;;;2.88;;
16099;SDS011;8154;50.830;12.082;2022-12-17T18:43:42;2.95;;;2.75;;
16099;SDS011;8154;50.830;12.082;2022-12-17T18:46:30;2.78;;;2.58;;
16099;SDS011;8154;50.830;12.082;2022-12-17T18:49:18;2.97;;;2.72;;
16099;SDS011;8154;50.830;12.082;2022-12-17T18:52:04;3.00;;;2.80;;
16099;SDS011;8154;50.830;12.082;2022-12-17T18:54:54;2.90;;;2.70;;
16099;SDS011;8154;50.830;12.082;2022-12-17T18:57:40;3.00;;;2.80;;
16099;SDS011;8154;50.830;12.082;2022-12-17T19:00:25;3.20;;;2.90;;
16099;SDS011;8154;50.830;12.082;2022-12-17T19:03:11;2.90;;;2.70;;
16099;SDS011;8154;50.830;12.082;2022-12-17T19:05:58;3.10;;;2.80;;
16099;SDS011;8154;50.830;12.082;2022-12-17T19:08:54;2.80;;;2.60;;
16099;SDS011;8154;50.830;12.082;2022-12-17T19:11:42;3.10;;;2.90;;
16099;SDS011;8154;50.830;12.082;2022-12-17T19:14:26;3.28;;;3.03;;
16099;SDS011;8154;50.830;12.082;2022-12-17T19:17:12;3.05;;;2.85;;
16099;SDS011;8154;50.830;12.082;2022-12-17T19:19:57;3.13;;;2.90;;
16099;SDS011;8154;50.830;12.082;2022-12-17T19:22:43;3.20;;;3.00;;
16099;SDS011;8154;50.830;12.082;2022-12-17T19:25:30;3.10;;;2.90;;
16099;SDS011;8154;50.830;12.082;2022-12-17T19:28:15;3.30;;;3.05;;
16099;SDS011;8154;50.830;12.082;2022-12-17T19:31:01;3.45;;;3.15;;
16099;SDS011;8154;50.830;12.082;2022-12-17T19:33:47;3.10;;;2.90;;
16099;SDS011;8154;50.830;12.082;2022-12-17T19:36:43;3.05;;;2.85;;
16099;SDS011;8154;50.830;12.082;2022-12-17T19:39:30;3.20;;;2.90;;
16099;SDS011;8154;50.830;12.082;2022-12-17T19:42:19;3.28;;;2.97;;
16099;SDS011;8154;50.830;12.082;2022-12-17T19:45:10;3.50;;;3.20;;
16099;SDS011;8154;50.830;12.082;2022-12-17T19:47:56;3.10;;;2.90;;
16099;SDS011;8154;50.830;12.082;2022-12-17T19:50:40;3.40;;;3.10;;
16099;SDS011;8154;50.830;12.082;2022-12-17T19:54:07;3.53;;;3.28;;
16099;SDS011;8154;50.830;12.082;2022-12-17T19:57:34;3.20;;;3.00;;
16099;SDS011;8154;50.830;12.082;2022-12-17T20:01:28;3.08;;;2.88;;
16099;SDS011;8154;50.830;12.082;2022-12-17T20:04:20;3.53;;;3.22;;
16099;SDS011;8154;50.830;12.082;2022-12-17T20:07:05;3.50;;;3.20;;
16099;SDS011;8154;50.830;12.082;2022-12-17T20:09:50;3.10;;;2.90;;
16099;SDS011;8154;50.830;12.082;2022-12-17T20:12:36;3.40;;;3.10;;
16099;SDS011;8154;50.830;12.082;2022-12-17T20:15:21;3.40;;;3.20;;
16099;SDS011;8154;50.830;12.082;2022-12-17T20:18:06;3.45;;;3.15;;